Aviation Digital Data Service (ADDS)

Output produced by METARs form (0907 UTC 06 February 2016)
found at http://aviationweather.gov/adds/metars/
 
KRIC 060536Z 0606/0706 00000KT P6SM SCT250 
     FM061700 18004KT P6SM SCT200 
     FM070000 13002KT P6SM BKN200